Karvina, Czech Republic
Current Conditions -  °F | °C
As of 6:00 AM on Tuesday 23 Dec 2014 (Local Time) from LKMT Reporting Station
Light Rain Light Rain  
Wind Chill: 39°   Ceiling: 2600
Heat Index: 46°   Visibility: 6mi
Dew Point: 41°   Wind: 17mph
Humidity: 81%   Direction: 220°SW
Pressure: 29.97"   Gusts: NA
Location:  49.86°N, 18.54°E
Report Text: LKMT 230400Z 22015KT 9999 -RA OVC026 08/05 Q1015 NOSIG
Loading
Personal Weather Stations






























Interactive Weather Map New forecast layout! Learn more

10-Day Weather Forecast

Advertisements
Track Severe Weather on mobile